NWWT weather

Oua Tom Airport
La Foa, New Caledonia

Public forecast

Using degrees Celsius for public forecast. Weather courtesy of forecast.io.

METAR (pilot weather report)

Closest report is La Tontouta International Airport, 22.8 nm (42.3 km) ESE. Retrieved 2018/10/23 11:00 UTC (9 minutes ago):

NWWW 231100Z AUTO VRB03KT CAVOK 25/17 Q1014 NOSIG

TAF (pilot weather forecast)

Closest forecast is La Tontouta International Airport, 22.8 nm (42.3 km) ESE. Retrieved 2018/10/23 06:00 UTC (5 hours ago):

TAF NWWW 230500Z 2306/2406 04008KT 9999 BKN055 BECMG 2308/2310 VRB02KT BECMG 2320/2322 09010KT PROB30 TEMPO 2400/2406 SHRA FEW020TCU